createdAt,value
2018-05-01T00:01:49.089Z,98257.19
2018-05-01T00:04:17.421Z,98258.80
2018-05-01T00:06:45.748Z,98260.88
2018-05-01T00:09:14.086Z,98246.52
2018-05-01T00:11:42.374Z,98252.82
2018-05-01T00:14:13.201Z,98259.68
2018-05-01T00:16:41.700Z,98247.98
2018-05-01T00:19:10.118Z,98261.03
2018-05-01T00:21:38.466Z,98258.55
2018-05-01T00:24:07.089Z,98246.43
2018-05-01T00:26:35.414Z,98249.86
2018-05-01T00:29:03.691Z,98256.84
2018-05-01T00:31:31.977Z,98252.54
2018-05-01T00:34:00.311Z,98251.45
2018-05-01T00:36:28.562Z,98251.05
2018-05-01T00:38:56.865Z,98257.65
2018-05-01T00:41:25.174Z,98256.36
2018-05-01T00:43:53.770Z,98258.97
2018-05-01T00:46:22.041Z,98256.36
2018-05-01T00:48:50.342Z,98263.31
2018-05-01T00:51:18.602Z,98264.65
2018-05-01T00:53:46.890Z,98265.14
2018-05-01T00:56:15.653Z,98259.52
2018-05-01T00:58:43.968Z,98268.05
2018-05-01T01:01:12.240Z,98265.41
2018-05-01T01:03:40.626Z,98278.45
2018-05-01T01:06:09.009Z,98268.05
2018-05-01T01:08:37.215Z,98264.78
2018-05-01T01:11:05.455Z,98262.91
2018-05-01T01:13:33.753Z,98271.86
2018-05-01T01:16:02.025Z,98281.33
2018-05-01T01:18:30.311Z,98278.84
2018-05-01T01:20:58.581Z,98291.20
2018-05-01T01:23:26.859Z,98287.25
2018-05-01T01:25:55.112Z,98297.14
2018-05-01T01:28:23.386Z,98295.97
2018-05-01T01:30:51.770Z,98297.66
2018-05-01T01:33:20.028Z,98309.50
2018-05-01T01:35:47.770Z,98297.53
2018-05-01T01:38:15.497Z,98305.96
2018-05-01T01:40:43.398Z,98312.78
2018-05-01T01:43:11.118Z,98313.59
2018-05-01T01:45:38.860Z,98317.00
2018-05-01T01:48:06.574Z,98314.88
2018-05-01T01:50:34.323Z,98320.56
2018-05-01T01:53:02.023Z,98333.19
2018-05-01T01:55:29.808Z,98323.31
2018-05-01T01:57:57.529Z,98337.01
2018-05-01T02:00:25.267Z,98323.59
2018-05-01T02:02:53.006Z,98331.22
2018-05-01T02:05:20.763Z,98339.37
2018-05-01T02:07:49.118Z,98326.89
2018-05-01T02:10:16.835Z,98338.84
2018-05-01T02:12:44.613Z,98325.94
2018-05-01T02:15:12.332Z,98331.63
2018-05-01T02:17:40.100Z,98339.11
2018-05-01T02:20:07.777Z,98330.81
2018-05-01T02:22:35.530Z,98340.17
2018-05-01T02:25:03.271Z,98334.78
2018-05-01T02:27:31.022Z,98341.88
2018-05-01T02:29:58.738Z,98352.14
2018-05-01T02:32:26.789Z,98338.07
2018-05-01T02:34:54.526Z,98351.08
2018-05-01T02:37:22.337Z,98348.08
2018-05-01T02:39:50.736Z,98366.09
2018-05-01T02:42:18.546Z,98359.66
2018-05-01T02:44:46.284Z,98363.20
2018-05-01T02:47:14.050Z,98359.66
2018-05-01T02:49:41.877Z,98358.86
2018-05-01T02:52:09.604Z,98358.34
2018-05-01T02:54:37.402Z,98354.37
2018-05-01T02:57:05.128Z,98354.38
2018-05-01T02:59:32.891Z,98363.73
2018-05-01T03:02:00.595Z,98361.89
2018-05-01T03:04:28.358Z,98362.94
2018-05-01T03:06:56.085Z,98359.77
2018-05-01T03:09:23.854Z,98354.92
2018-05-01T03:11:51.558Z,98359.91
2018-05-01T03:14:19.306Z,98365.84
2018-05-01T03:16:47.058Z,98378.48
2018-05-01T03:19:15.392Z,98368.31
2018-05-01T03:21:43.136Z,98381.09
2018-05-01T03:24:10.865Z,98387.42
2018-05-01T03:26:38.629Z,98381.37
2018-05-01T03:29:06.373Z,98380.45
2018-05-01T03:31:34.096Z,98382.80
2018-05-01T03:34:01.827Z,98393.47
2018-05-01T03:36:29.950Z,98396.38
2018-05-01T03:38:57.776Z,98402.32
2018-05-01T03:41:25.444Z,98409.67
2018-05-01T03:43:53.162Z,98404.01
2018-05-01T03:46:20.902Z,98407.31
2018-05-01T03:48:48.632Z,98402.05
2018-05-01T03:51:16.399Z,98392.97
2018-05-01T03:53:44.374Z,98401.14
2018-05-01T03:56:12.175Z,98403.50
2018-05-01T03:58:40.247Z,98405.21
2018-05-01T04:01:08.280Z,98409.27
2018-05-01T04:03:35.999Z,98412.32
2018-05-01T04:06:03.741Z,98406.89
2018-05-01T04:08:31.478Z,98428.88
2018-05-01T04:10:59.190Z,98434.54
2018-05-01T04:13:26.938Z,98424.39
2018-05-01T04:15:54.685Z,98427.83
2018-05-01T04:18:22.476Z,98428.63
2018-05-01T04:20:50.183Z,98434.95
2018-05-01T04:23:17.964Z,98429.92
2018-05-01T04:25:45.690Z,98436.11
2018-05-01T04:28:13.478Z,98430.61
2018-05-01T04:30:41.177Z,98431.00
2018-05-01T04:33:08.932Z,98432.92
2018-05-01T04:35:36.690Z,98440.98
2018-05-01T04:38:04.453Z,98443.61
2018-05-01T04:40:32.526Z,98448.63
2018-05-01T04:43:00.445Z,98438.87
2018-05-01T04:45:28.164Z,98452.16
2018-05-01T04:47:55.907Z,98452.42
2018-05-01T04:50:23.661Z,98450.80
2018-05-01T04:52:51.432Z,98448.72
2018-05-01T04:55:19.194Z,98455.50
2018-05-01T04:57:46.886Z,98455.54
2018-05-01T05:00:14.620Z,98460.58
2018-05-01T05:02:42.358Z,98470.45
2018-05-01T05:05:10.150Z,98482.45
2018-05-01T05:07:37.936Z,98482.48
2018-05-01T05:10:05.696Z,98494.70
2018-05-01T05:12:33.716Z,98488.27
2018-05-01T05:15:04.650Z,98491.98
2018-05-01T05:17:32.397Z,98491.17
2018-05-01T05:20:00.175Z,98493.79
2018-05-01T05:22:27.882Z,98494.67
2018-05-01T05:24:55.646Z,98502.12
2018-05-01T05:27:23.367Z,98499.38
2018-05-01T05:29:51.107Z,98514.52
2018-05-01T05:32:19.130Z,98512.42
2018-05-01T05:34:46.908Z,98517.44
2018-05-01T05:37:14.677Z,98518.20
2018-05-01T05:39:42.698Z,98527.61
2018-05-01T05:42:10.421Z,98521.70
2018-05-01T05:44:38.183Z,98528.80
2018-05-01T05:47:05.947Z,98532.59
2018-05-01T05:49:34.475Z,98529.97
2018-05-01T05:52:02.265Z,98524.65
2018-05-01T05:54:29.963Z,98528.49
2018-05-01T05:56:57.767Z,98538.68
2018-05-01T05:59:25.591Z,98543.95
2018-05-01T06:01:53.431Z,98546.64
2018-05-01T06:04:21.157Z,98546.50
2018-05-01T06:06:48.938Z,98531.63
2018-05-01T06:09:17.499Z,98540.47
2018-05-01T06:11:45.541Z,98550.21
2018-05-01T06:14:13.222Z,98554.28
2018-05-01T06:16:41.202Z,98537.32
2018-05-01T06:19:08.910Z,98544.33
2018-05-01T06:21:36.715Z,98548.92
2018-05-01T06:24:04.466Z,98540.48
2018-05-01T06:26:32.238Z,98567.23
2018-05-01T06:28:59.961Z,98571.17
2018-05-01T06:31:27.759Z,98583.05
2018-05-01T06:33:55.513Z,98587.52
2018-05-01T06:36:23.259Z,98587.38
2018-05-01T06:38:51.012Z,98579.75
2018-05-01T06:41:18.725Z,98589.91
2018-05-01T06:43:46.490Z,98590.78
2018-05-01T06:46:14.174Z,98592.13
2018-05-01T06:48:41.919Z,98576.03
2018-05-01T06:51:09.657Z,98583.55
2018-05-01T06:53:37.412Z,98595.94
2018-05-01T06:56:05.167Z,98602.07
2018-05-01T06:58:32.941Z,98604.84
2018-05-01T07:01:00.667Z,98609.59
2018-05-01T07:03:28.430Z,98615.84
2018-05-01T07:05:56.173Z,98633.17
2018-05-01T07:08:23.945Z,98633.59
2018-05-01T07:10:51.657Z,98636.77
2018-05-01T07:13:19.408Z,98640.55
2018-05-01T07:15:47.242Z,98642.64
2018-05-01T07:18:14.932Z,98655.43
2018-05-01T07:20:43.893Z,98646.61
2018-05-01T07:23:11.673Z,98645.20
2018-05-01T07:25:39.503Z,98654.18
2018-05-01T07:28:07.826Z,98647.21
2018-05-01T07:30:35.566Z,98671.22
2018-05-01T07:33:03.454Z,98658.93
2018-05-01T07:35:31.383Z,98662.92
2018-05-01T07:37:59.081Z,98667.14
2018-05-01T07:40:26.791Z,98674.34
2018-05-01T07:42:54.519Z,98671.33
2018-05-01T07:45:22.260Z,98688.09
2018-05-01T07:47:50.079Z,98671.49
2018-05-01T07:50:17.811Z,98675.83
2018-05-01T07:52:45.576Z,98662.77
2018-05-01T07:55:13.313Z,98671.27
2018-05-01T07:57:41.028Z,98683.58
2018-05-01T08:00:08.799Z,98665.67
2018-05-01T08:02:36.498Z,98664.47
2018-05-01T08:05:04.272Z,98668.84
2018-05-01T08:07:32.029Z,98674.26
2018-05-01T08:09:59.799Z,98679.51
2018-05-01T08:12:27.572Z,98680.44
2018-05-01T08:14:55.353Z,98685.45
2018-05-01T08:17:23.122Z,98692.45
2018-05-01T08:19:50.863Z,98683.70
2018-05-01T08:22:18.672Z,98683.84
2018-05-01T08:24:46.421Z,98691.38
2018-05-01T08:27:14.186Z,98686.78
2018-05-01T08:29:42.060Z,98702.61
2018-05-01T08:32:09.868Z,98713.96
2018-05-01T08:34:37.585Z,98689.53
2018-05-01T08:37:05.363Z,98696.16
2018-05-01T08:39:33.316Z,98697.08
2018-05-01T08:42:01.126Z,98697.62
2018-05-01T08:44:28.898Z,98700.13
2018-05-01T08:46:57.566Z,98704.72
2018-05-01T08:49:25.498Z,98708.02
2018-05-01T08:51:53.303Z,98698.25
2018-05-01T08:54:21.302Z,98707.24
2018-05-01T08:56:49.174Z,98707.75
2018-05-01T08:59:17.675Z,98722.02
2018-05-01T09:01:45.425Z,98716.00
2018-05-01T09:04:13.442Z,98714.89
2018-05-01T09:06:41.208Z,98710.06
2018-05-01T09:09:08.987Z,98710.41
2018-05-01T09:11:36.731Z,98720.00
2018-05-01T09:14:04.471Z,98714.55
2018-05-01T09:16:32.244Z,98727.13
2018-05-01T09:19:00.127Z,98726.60
2018-05-01T09:21:27.904Z,98711.27
2018-05-01T09:23:55.809Z,98729.13
2018-05-01T09:26:23.609Z,98720.27
2018-05-01T09:28:51.709Z,98716.92
2018-05-01T09:31:19.630Z,98717.90
2018-05-01T09:33:47.404Z,98714.30
2018-05-01T09:36:15.192Z,98710.84
2018-05-01T09:38:43.031Z,98725.66
2018-05-01T09:41:11.724Z,98726.33
2018-05-01T09:43:39.718Z,98726.38
2018-05-01T09:46:08.884Z,98726.11
2018-05-01T09:48:36.763Z,98740.17
2018-05-01T09:51:04.604Z,98730.50
2018-05-01T09:53:33.826Z,98736.24
2018-05-01T09:56:02.126Z,98719.63
2018-05-01T09:58:30.497Z,98722.36
2018-05-01T10:00:58.851Z,98718.95
2018-05-01T10:03:27.202Z,98724.94
2018-05-01T10:05:55.471Z,98728.59
2018-05-01T10:08:23.764Z,98724.69
2018-05-01T10:10:52.089Z,98735.41
2018-05-01T10:13:20.411Z,98718.91
2018-05-01T10:15:50.802Z,98717.88
2018-05-01T10:18:20.951Z,98723.47
2018-05-01T10:20:51.735Z,98729.45
2018-05-01T10:23:21.092Z,98722.14
2018-05-01T10:25:49.455Z,98733.25
2018-05-01T10:28:18.103Z,98740.98
2018-05-01T10:30:47.635Z,98725.73
2018-05-01T10:33:16.882Z,98738.77
2018-05-01T10:35:49.116Z,98735.67
2018-05-01T10:38:20.022Z,98722.59
2018-05-01T10:40:48.330Z,98728.50
2018-05-01T10:43:16.632Z,98728.75
2018-05-01T10:45:45.408Z,98730.47
2018-05-01T10:48:13.834Z,98737.91
2018-05-01T10:50:42.166Z,98735.05
2018-05-01T10:53:10.504Z,98726.63
2018-05-01T10:55:38.831Z,98712.28
2018-05-01T10:58:07.185Z,98681.55
2018-05-01T11:00:35.660Z,98717.50
2018-05-01T11:03:03.924Z,98720.83
2018-05-01T11:05:34.879Z,98729.94
2018-05-01T11:08:03.311Z,98727.56
2018-05-01T11:10:33.763Z,98714.83
2018-05-01T11:13:02.322Z,98708.62
2018-05-01T11:15:37.365Z,98710.91
2018-05-01T11:18:05.907Z,98721.03
2018-05-01T11:20:36.914Z,98696.20
2018-05-01T11:23:05.405Z,98704.69
2018-05-01T11:25:34.714Z,98704.58
2018-05-01T11:28:03.979Z,98705.28
2018-05-01T11:30:32.279Z,98707.11
2018-05-01T11:33:00.567Z,98701.22
2018-05-01T11:35:28.913Z,98722.25
2018-05-01T11:37:57.455Z,98722.81
2018-05-01T11:40:25.991Z,98717.53
2018-05-01T11:42:54.454Z,98722.44
2018-05-01T11:45:22.692Z,98707.82
2018-05-01T11:47:51.035Z,98713.31
2018-05-01T11:50:19.394Z,98714.75
2018-05-01T11:52:47.779Z,98703.86
2018-05-01T11:55:16.036Z,98709.88
2018-05-01T11:57:44.753Z,98723.27
2018-05-01T12:00:13.044Z,98717.02
2018-05-01T12:02:42.236Z,98731.55
2018-05-01T12:05:10.522Z,98738.34
2018-05-01T12:07:38.838Z,98722.02
2018-05-01T12:10:07.164Z,98714.92
2018-05-01T12:12:35.441Z,98723.20
2018-05-01T12:15:03.777Z,98720.39
2018-05-01T12:17:32.143Z,98724.38
2018-05-01T12:20:00.472Z,98729.67
2018-05-01T12:22:28.773Z,98723.66
2018-05-01T12:24:57.081Z,98752.59
2018-05-01T12:27:25.352Z,98750.73
2018-05-01T12:29:53.666Z,98767.14
2018-05-01T12:32:21.934Z,98760.98
2018-05-01T12:34:50.222Z,98761.97
2018-05-01T12:37:18.477Z,98759.05
2018-05-01T12:39:48.050Z,98763.66
2018-05-01T12:42:16.324Z,98764.02
2018-05-01T12:44:44.966Z,98767.03
2018-05-01T12:47:13.201Z,98767.95
2018-05-01T12:49:41.493Z,98777.00
2018-05-01T12:52:09.811Z,98777.95
2018-05-01T12:54:38.097Z,98774.58
2018-05-01T12:57:06.432Z,98771.95
2018-05-01T12:59:34.692Z,98762.10
2018-05-01T13:02:02.967Z,98767.63
2018-05-01T13:04:32.163Z,98766.78
2018-05-01T13:07:00.494Z,98756.36
2018-05-01T13:09:28.802Z,98753.18
2018-05-01T13:11:57.381Z,98735.84
2018-05-01T13:14:25.634Z,98742.05
2018-05-01T13:16:53.990Z,98725.44
2018-05-01T13:19:22.278Z,98724.17
2018-05-01T13:21:50.563Z,98727.01
2018-05-01T13:24:18.897Z,98727.93
2018-05-01T13:26:48.432Z,98711.10
2018-05-01T13:29:19.672Z,98720.66
2018-05-01T13:31:48.897Z,98715.25
2018-05-01T13:34:17.267Z,98718.39
2018-05-01T13:36:45.576Z,98716.86
2018-05-01T13:39:13.861Z,98728.41
2018-05-01T13:41:42.585Z,98713.28
2018-05-01T13:44:12.566Z,98718.18
2018-05-01T13:46:40.858Z,98713.47
2018-05-01T13:49:09.207Z,98724.21
2018-05-01T13:51:37.478Z,98716.86
2018-05-01T13:54:05.784Z,98713.34
2018-05-01T13:56:34.841Z,98709.75
2018-05-01T13:59:03.102Z,98694.31
2018-05-01T14:01:31.376Z,98690.98
2018-05-01T14:03:59.676Z,98694.00
2018-05-01T14:06:30.209Z,98694.20
2018-05-01T14:08:58.577Z,98693.16
2018-05-01T14:11:26.851Z,98683.88
2018-05-01T14:13:55.733Z,98688.80
2018-05-01T14:16:24.059Z,98695.21
2018-05-01T14:18:52.325Z,98699.23
2018-05-01T14:21:20.587Z,98687.66
2018-05-01T14:23:49.351Z,98706.50
2018-05-01T14:26:17.647Z,98706.23
2018-05-01T14:28:45.942Z,98695.24
2018-05-01T14:31:14.206Z,98689.70
2018-05-01T14:33:42.522Z,98693.11
2018-05-01T14:36:11.007Z,98700.88
2018-05-01T14:38:39.343Z,98698.78
2018-05-01T14:41:07.597Z,98687.62
2018-05-01T14:43:35.889Z,98682.23
2018-05-01T14:46:04.151Z,98674.65
2018-05-01T14:48:32.462Z,98674.92
2018-05-01T14:51:00.748Z,98671.50
2018-05-01T14:53:32.881Z,98666.82
2018-05-01T14:56:01.211Z,98673.09
2018-05-01T14:58:29.452Z,98672.75
2018-05-01T15:00:57.801Z,98682.84
2018-05-01T15:03:26.091Z,98680.95
2018-05-01T15:05:58.050Z,98688.14
2018-05-01T15:08:26.651Z,98691.77
2018-05-01T15:10:55.050Z,98686.56
2018-05-01T15:13:23.409Z,98683.14
2018-05-01T15:15:51.722Z,98670.13
2018-05-01T15:18:19.998Z,98670.31
2018-05-01T15:20:48.330Z,98679.91
2018-05-01T15:23:16.879Z,98682.03
2018-05-01T15:25:45.189Z,98692.69
2018-05-01T15:28:13.471Z,98681.66
2018-05-01T15:30:41.896Z,98669.20
2018-05-01T15:33:12.637Z,98661.63
2018-05-01T15:35:42.197Z,98670.64
2018-05-01T15:38:10.949Z,98665.55
2018-05-01T15:40:39.597Z,98672.70
2018-05-01T15:43:08.043Z,98669.23
2018-05-01T15:45:36.430Z,98673.20
2018-05-01T15:48:05.837Z,98656.55
2018-05-01T15:50:34.313Z,98654.52
2018-05-01T15:53:02.641Z,98654.86
2018-05-01T15:55:32.290Z,98655.48
2018-05-01T15:58:00.677Z,98657.55
2018-05-01T16:00:28.953Z,98653.91
2018-05-01T16:02:57.326Z,98649.55
2018-05-01T16:05:25.590Z,98657.25
2018-05-01T16:07:53.902Z,98652.73
2018-05-01T16:10:22.183Z,98665.84
2018-05-01T16:12:51.101Z,98657.94
2018-05-01T16:15:19.415Z,98669.91
2018-05-01T16:17:47.671Z,98664.76
2018-05-01T16:20:16.168Z,98663.86
2018-05-01T16:22:44.626Z,98666.64
2018-05-01T16:25:13.223Z,98662.50
2018-05-01T16:27:41.480Z,98664.26
2018-05-01T16:30:09.765Z,98668.94
2018-05-01T16:32:38.093Z,98664.55
2018-05-01T16:35:06.550Z,98663.81
2018-05-01T16:37:34.860Z,98656.17
2018-05-01T16:40:03.216Z,98660.28
2018-05-01T16:42:31.738Z,98662.22
2018-05-01T16:45:00.121Z,98657.75
2018-05-01T16:47:28.370Z,98653.34
2018-05-01T16:49:56.706Z,98649.50
2018-05-01T16:52:25.575Z,98660.17
2018-05-01T16:54:53.900Z,98656.81
2018-05-01T16:57:22.186Z,98657.27
2018-05-01T16:59:50.486Z,98653.67
2018-05-01T17:02:18.745Z,98657.52
2018-05-01T17:04:47.125Z,98658.53
2018-05-01T17:07:15.921Z,98657.46
2018-05-01T17:09:46.703Z,98656.09
2018-05-01T17:12:24.686Z,98651.31
2018-05-01T17:14:55.359Z,98644.66
2018-05-01T17:17:25.836Z,98653.86
2018-05-01T17:19:54.225Z,98664.01
2018-05-01T17:22:22.681Z,98654.98
2018-05-01T17:24:52.256Z,98649.67
2018-05-01T17:27:20.570Z,98653.55
2018-05-01T17:29:48.831Z,98655.05
2018-05-01T17:32:17.111Z,98648.96
2018-05-01T17:34:45.500Z,98654.95
2018-05-01T17:37:13.842Z,98654.31
2018-05-01T17:39:42.146Z,98659.72
2018-05-01T17:42:10.458Z,98661.45
2018-05-01T17:44:38.746Z,98659.16
2018-05-01T17:47:07.072Z,98661.69
2018-05-01T17:49:35.331Z,98658.04
2018-05-01T17:52:03.645Z,98669.88
2018-05-01T17:54:33.204Z,98669.40
2018-05-01T17:57:01.549Z,98668.30
2018-05-01T17:59:29.932Z,98671.58
2018-05-01T18:01:59.418Z,98669.85
2018-05-01T18:04:27.851Z,98671.06
2018-05-01T18:06:56.244Z,98676.38
2018-05-01T18:09:24.655Z,98679.45
2018-05-01T18:11:53.746Z,98682.28
2018-05-01T18:14:22.308Z,98690.17
2018-05-01T18:16:50.609Z,98693.61
2018-05-01T18:19:18.926Z,98694.03
2018-05-01T18:21:47.238Z,98694.71
2018-05-01T18:24:16.427Z,98697.55
2018-05-01T18:26:44.891Z,98696.70
2018-05-01T18:29:13.191Z,98697.67
2018-05-01T18:52:56.215Z,98711.17
2018-05-01T18:55:24.536Z,98720.22
2018-05-01T18:57:52.887Z,98717.07
2018-05-01T19:00:21.832Z,98724.42
2018-05-01T19:02:50.114Z,98721.80
2018-05-01T19:05:21.099Z,98725.89
2018-05-01T19:07:50.414Z,98732.12
2018-05-01T19:10:18.821Z,98728.66
2018-05-01T19:12:47.163Z,98735.82
2018-05-01T19:15:15.469Z,98733.39
2018-05-01T19:17:43.853Z,98735.83
2018-05-01T19:20:12.172Z,98731.39
2018-05-01T19:22:40.501Z,98730.63
2018-05-01T19:25:08.810Z,98733.72
2018-05-01T19:27:37.072Z,98736.78
2018-05-01T19:30:05.373Z,98736.43
2018-05-01T19:32:33.634Z,98735.25
2018-05-01T19:35:02.227Z,98740.48
2018-05-01T19:37:30.523Z,98738.63
2018-05-01T19:39:58.799Z,98747.77
2018-05-01T19:42:27.079Z,98756.27
2018-05-01T19:44:56.289Z,98751.81
2018-05-01T19:47:24.982Z,98757.27
2018-05-01T19:49:53.283Z,98757.95
2018-05-01T19:52:21.590Z,98752.38
2018-05-01T19:54:49.866Z,98751.89
2018-05-01T19:57:18.142Z,98752.45
2018-05-01T19:59:46.439Z,98752.08
2018-05-01T20:02:14.753Z,98758.69
2018-05-01T20:04:43.041Z,98756.27
2018-05-01T20:07:11.640Z,98749.27
2018-05-01T20:09:39.895Z,98752.55
2018-05-01T20:12:08.211Z,98757.48
2018-05-01T20:14:37.551Z,98757.25
2018-05-01T20:17:05.842Z,98757.20
2018-05-01T20:19:34.105Z,98751.63
2018-05-01T20:22:02.400Z,98750.31
2018-05-01T20:24:30.764Z,98748.28
2018-05-01T20:27:10.452Z,98765.98
2018-05-01T20:29:38.778Z,98757.47
2018-05-01T20:32:07.066Z,98762.56
2018-05-01T20:34:35.339Z,98766.38
2018-05-01T20:37:04.480Z,98752.48
2018-05-01T20:39:32.915Z,98753.17
2018-05-01T20:42:02.110Z,98766.33
2018-05-01T20:44:30.410Z,98761.48
2018-05-01T20:46:58.681Z,98763.86
2018-05-01T20:49:27.595Z,98762.66
2018-05-01T20:51:55.937Z,98766.11
2018-05-01T20:54:24.307Z,98761.75
2018-05-01T20:56:52.594Z,98755.23
2018-05-01T20:59:20.904Z,98760.36
2018-05-01T21:01:49.637Z,98756.91
2018-05-01T21:04:20.171Z,98763.69
2018-05-01T21:06:48.661Z,98767.52
2018-05-01T21:09:17.948Z,98765.52
2018-05-01T21:11:46.253Z,98767.25
2018-05-01T21:14:14.941Z,98765.80
2018-05-01T21:16:43.495Z,98765.55
2018-05-01T21:19:11.888Z,98763.58
2018-05-01T21:21:40.151Z,98734.83
2018-05-01T21:24:08.540Z,98772.84
2018-05-01T21:26:36.806Z,98774.28
2018-05-01T21:29:05.878Z,98773.24
2018-05-01T21:31:34.189Z,98775.22
2018-05-01T21:34:02.460Z,98772.05
2018-05-01T21:36:30.738Z,98774.56
2018-05-01T21:38:59.978Z,98776.01
2018-05-01T21:41:28.317Z,98777.70
2018-05-01T21:43:57.527Z,98778.09
2018-05-01T21:46:25.850Z,98781.11
2018-05-01T21:48:54.873Z,98774.22
2018-05-01T21:51:23.217Z,98770.11
2018-05-01T21:53:51.443Z,98764.70
2018-05-01T21:56:19.773Z,98764.19
2018-05-01T21:58:48.314Z,98770.38
2018-05-01T22:01:16.626Z,98783.59
2018-05-01T22:03:49.089Z,98778.88
2018-05-01T22:06:17.433Z,98776.45
2018-05-01T22:08:45.698Z,98769.02
2018-05-01T22:11:17.664Z,98777.20
2018-05-01T22:13:52.258Z,98775.96
2018-05-01T22:16:21.108Z,98774.90
2018-05-01T22:18:50.290Z,98783.19
2018-05-01T22:21:18.571Z,98787.30
2018-05-01T22:23:46.843Z,98779.67
2018-05-01T22:26:15.110Z,98781.98
2018-05-01T22:28:43.480Z,98777.07
2018-05-01T22:31:12.592Z,98778.38
2018-05-01T22:33:40.860Z,98789.27
2018-05-01T22:36:09.132Z,98791.52
2018-05-01T22:38:37.906Z,98791.73
2018-05-01T22:41:06.226Z,98788.36
2018-05-01T22:43:34.876Z,98789.39
2018-05-01T22:46:03.170Z,98794.01
2018-05-01T22:48:31.752Z,98789.25
2018-05-01T22:51:00.141Z,98783.73
2018-05-01T22:53:29.354Z,98785.50
2018-05-01T22:58:40.806Z,98782.66
2018-05-01T23:01:09.128Z,98782.34
2018-05-01T23:03:37.374Z,98778.79
2018-05-01T23:06:06.553Z,98771.63
2018-05-01T23:08:34.967Z,98772.92
2018-05-01T23:11:03.253Z,98765.74
2018-05-01T23:13:32.275Z,98760.58
2018-05-01T23:16:01.165Z,98760.24
2018-05-01T23:18:29.468Z,98757.93
2018-05-01T23:20:58.281Z,98761.00
2018-05-01T23:23:26.542Z,98759.78
2018-05-01T23:25:54.816Z,98755.77
2018-05-01T23:28:23.081Z,98756.12
2018-05-01T23:30:51.388Z,98754.59
2018-05-01T23:33:19.650Z,98752.30
2018-05-01T23:35:47.923Z,98747.41
2018-05-01T23:38:16.420Z,98756.53
2018-05-01T23:40:44.722Z,98759.42
2018-05-01T23:43:13.020Z,98760.13
2018-05-01T23:45:41.297Z,98748.53
2018-05-01T23:48:09.558Z,98752.59
2018-05-01T23:50:37.902Z,98748.67
2018-05-01T23:53:06.162Z,98744.61
2018-05-01T23:55:35.202Z,98745.38
2018-05-01T23:58:03.550Z,98743.39
